Time;durP1;ratioP1;P1;durP2;ratioP2;P2;SDS_P1;SDS_P2;PMS_P1;PMS_P2;Temp;Humidity;BMP_temperature;BMP_pressure;BME280_temperature;BME280_humidity;BME280_pressure;Samples;Min_cycle;Max_cycle;Signal;HPM_P1;HPM_P2
2021/09/26 00:00:40;;;;;;;19.35;15.60;;;;;;;14.96;100.00;101292.44;5255554;28;20025;-69
2021/09/26 00:03:11;;;;;;;21.50;17.00;;;;;;;14.94;100.00;101289.13;5260296;28;20029;-69
2021/09/26 00:05:43;;;;;;;19.58;16.95;;;;;;;14.94;100.00;101286.50;5260436;28;20497;-68
2021/09/26 00:08:14;;;;;;;21.73;15.98;;;;;;;14.92;100.00;101284.97;5259895;28;20051;-69
2021/09/26 00:10:45;;;;;;;20.40;15.65;;;;;;;14.94;100.00;101280.38;5258953;28;20488;-68
2021/09/26 00:13:18;;;;;;;20.23;15.45;;;;;;;14.90;100.00;101285.13;5260699;28;20421;-68
2021/09/26 00:15:49;;;;;;;19.20;15.43;;;;;;;14.95;100.00;101289.94;5259961;28;20474;-68
2021/09/26 00:18:21;;;;;;;20.42;16.08;;;;;;;14.88;100.00;101280.97;5258831;28;20035;-69
2021/09/26 00:20:52;;;;;;;18.23;14.63;;;;;;;14.89;100.00;101278.19;5260448;28;20020;-68
2021/09/26 00:23:25;;;;;;;16.20;14.45;;;;;;;14.88;100.00;101273.88;5260819;28;20047;-68
2021/09/26 00:25:57;;;;;;;19.48;15.85;;;;;;;14.83;100.00;101270.84;5259166;28;20029;-68
2021/09/26 00:28:28;;;;;;;19.95;16.20;;;;;;;14.90;100.00;101271.94;5259659;28;20028;-68
2021/09/26 00:31:00;;;;;;;17.23;14.65;;;;;;;14.88;100.00;101268.59;5260024;28;20083;-69
2021/09/26 00:33:32;;;;;;;20.70;15.20;;;;;;;14.93;100.00;101274.28;5254933;28;20489;-68
2021/09/26 00:36:04;;;;;;;19.77;16.17;;;;;;;14.92;100.00;101277.88;5259726;28;20107;-68
2021/09/26 00:38:35;;;;;;;22.00;16.17;;;;;;;14.92;100.00;101269.97;5259841;28;20060;-68
2021/09/26 00:41:07;;;;;;;17.90;15.75;;;;;;;14.92;100.00;101280.50;5260116;28;20029;-68
2021/09/26 00:43:38;;;;;;;16.05;14.27;;;;;;;14.97;100.00;101282.72;5250779;28;20071;-68
2021/09/26 00:46:10;;;;;;;21.50;15.73;;;;;;;14.94;100.00;101289.13;5260792;28;20458;-69
2021/09/26 00:48:41;;;;;;;19.63;14.80;;;;;;;14.98;100.00;101289.66;5259998;28;20021;-68
2021/09/26 00:51:12;;;;;;;18.05;14.93;;;;;;;14.96;100.00;101286.31;5257765;28;20028;-69
2021/09/26 00:53:44;;;;;;;16.65;14.43;;;;;;;14.97;100.00;101286.19;5260460;28;20098;-69
2021/09/26 00:56:15;;;;;;;16.92;14.77;;;;;;;14.98;100.00;101279.09;5260081;28;20386;-69
2021/09/26 00:58:49;;;;;;;18.73;14.45;;;;;;;14.96;100.00;101278.41;5258293;28;20463;-69
2021/09/26 01:01:20;;;;;;;16.48;14.45;;;;;;;14.94;100.00;101281.22;5257425;28;20044;-69
2021/09/26 01:03:52;;;;;;;20.67;15.30;;;;;;;14.95;100.00;101274.94;5259391;28;20025;-68
2021/09/26 01:06:42;;;;;;;17.52;15.20;;;;;;;15.04;100.00;101276.72;5259568;28;20063;-69
2021/09/26 01:09:19;;;;;;;17.30;13.43;;;;;;;14.98;100.00;101271.19;5257372;28;20059;-69
2021/09/26 01:12:00;;;;;;;20.35;15.50;;;;;;;14.94;100.00;101268.03;5245227;28;20021;-69
2021/09/26 01:14:46;;;;;;;17.67;15.40;;;;;;;14.96;100.00;101266.03;5251827;28;20025;-69
2021/09/26 01:17:24;;;;;;;19.10;15.23;;;;;;;14.89;100.00;101272.06;5257446;28;20029;-69
2021/09/26 01:20:34;;;;;;;17.90;14.02;;;;;;;14.97;100.00;101266.91;5259685;28;20031;-69
2021/09/26 01:23:05;;;;;;;19.63;14.63;;;;;;;14.80;100.00;101258.78;5259597;28;20131;-68
2021/09/26 01:25:55;;;;;;;17.10;15.10;;;;;;;14.81;100.00;101262.25;5259221;28;20033;-68
2021/09/26 01:28:51;;;;;;;19.20;15.23;;;;;;;14.90;100.00;101255.28;5254148;28;20312;-68
2021/09/26 01:31:30;;;;;;;18.02;14.50;;;;;;;14.84;100.00;101252.22;5254191;28;20527;-69
2021/09/26 01:34:13;;;;;;;15.35;13.70;;;;;;;14.81;100.00;101252.56;5255271;28;20024;-69
2021/09/26 01:36:52;;;;;;;16.77;13.87;;;;;;;14.82;100.00;101248.09;5258889;28;20033;-69
2021/09/26 01:39:27;;;;;;;19.15;14.82;;;;;;;14.72;100.00;101240.22;5258928;28;20072;-69
2021/09/26 01:42:17;;;;;;;19.33;15.93;;;;;;;14.86;100.00;101256.56;5254428;28;20390;-69
2021/09/26 01:44:56;;;;;;;16.98;14.82;;;;;;;14.77;100.00;101247.69;5259283;28;20115;-68
2021/09/26 01:47:34;;;;;;;20.52;15.70;;;;;;;14.73;100.00;101244.53;5259085;28;20037;-69
2021/09/26 01:50:09;;;;;;;19.52;14.73;;;;;;;14.70;100.00;101244.84;5255388;28;20032;-69
2021/09/26 01:52:45;;;;;;;18.73;14.98;;;;;;;14.73;100.00;101236.63;5256422;28;20021;-69
2021/09/26 01:55:20;;;;;;;18.70;15.93;;;;;;;14.73;100.00;101225.22;5257811;28;20032;-68
2021/09/26 01:57:54;;;;;;;18.15;16.00;;;;;;;14.75;100.00;101234.66;5258675;28;20102;-69
2021/09/26 02:00:26;;;;;;;19.42;16.02;;;;;;;14.75;100.00;101239.94;5254503;28;20210;-69
2021/09/26 02:02:58;;;;;;;27.97;17.10;;;;;;;14.78;100.00;101236.19;5262183;28;20025;-69
2021/09/26 02:05:30;;;;;;;19.15;15.38;;;;;;;14.81;100.00;101234.09;5262220;28;20336;-69
2021/09/26 02:08:05;;;;;;;19.33;15.67;;;;;;;14.84;100.00;101239.03;5260291;28;20025;-69
2021/09/26 02:10:38;;;;;;;18.48;14.15;;;;;;;14.81;100.00;101234.09;5259107;28;20028;-69
2021/09/26 02:13:11;;;;;;;16.05;14.32;;;;;;;14.93;100.00;101233.88;5263439;28;20063;-68
2021/09/26 02:15:44;;;;;;;16.25;14.20;;;;;;;14.91;100.00;101231.38;5261675;28;20378;-69
2021/09/26 02:18:16;;;;;;;21.30;15.43;;;;;;;14.96;100.00;101223.00;5257133;28;20032;-68
2021/09/26 02:20:49;;;;;;;19.13;15.20;;;;;;;14.96;100.00;101220.38;5261713;28;20017;-69
2021/09/26 02:23:21;;;;;;;17.38;14.73;;;;;;;14.94;100.00;101220.53;5263066;28;20142;-69
2021/09/26 02:25:54;;;;;;;17.58;14.90;;;;;;;14.97;100.00;101225.50;5257240;28;20021;-69
2021/09/26 02:28:25;;;;;;;20.70;14.90;;;;;;;15.00;100.00;101227.00;5262427;28;20021;-68
2021/09/26 02:30:57;;;;;;;15.73;13.52;;;;;;;15.00;100.00;101227.84;5262358;28;20525;-69
2021/09/26 02:33:28;;;;;;;19.90;14.52;;;;;;;15.07;100.00;101233.34;5262945;28;20033;-69
2021/09/26 02:35:59;;;;;;;18.08;14.05;;;;;;;15.05;100.00;101241.44;5256458;28;20154;-69
2021/09/26 02:38:31;;;;;;;16.50;13.43;;;;;;;15.09;100.00;101244.59;5261678;28;20098;-69
2021/09/26 02:41:32;;;;;;;19.98;14.63;;;;;;;15.22;100.00;101242.41;5261886;28;20032;-69
2021/09/26 02:44:31;;;;;;;18.35;13.82;;;;;;;15.17;100.00;101249.13;5239233;28;20540;-68
2021/09/26 02:47:08;;;;;;;18.75;14.60;;;;;;;15.16;100.00;101242.19;5253104;28;20043;-69
2021/09/26 02:49:41;;;;;;;18.65;13.52;;;;;;;15.15;100.00;101248.44;5260594;28;20427;-69
2021/09/26 02:52:13;;;;;;;17.35;13.52;;;;;;;15.18;100.00;101243.69;5262374;28;20017;-69
2021/09/26 02:54:45;;;;;;;16.83;13.82;;;;;;;15.19;100.00;101241.88;5260178;28;20379;-69
2021/09/26 02:57:17;;;;;;;20.45;14.38;;;;;;;15.19;100.00;101240.09;5262367;28;20377;-69
2021/09/26 02:59:49;;;;;;;20.77;14.73;;;;;;;15.23;100.00;101246.72;5260334;28;20036;-68
2021/09/26 03:02:28;;;;;;;20.10;13.23;;;;;;;15.29;100.00;101242.63;5262014;28;20086;-68
2021/09/26 03:05:00;;;;;;;19.67;13.98;;;;;;;15.24;100.00;101245.72;5262265;28;20032;-69
2021/09/26 03:07:31;;;;;;;19.13;13.48;;;;;;;15.28;100.00;101235.69;5261849;28;20112;-69
2021/09/26 03:10:04;;;;;;;18.38;13.82;;;;;;;15.29;100.00;101237.34;5252820;28;20074;-69
2021/09/26 03:12:36;;;;;;;19.80;13.85;;;;;;;15.28;100.00;101235.69;5259642;28;20029;-68
2021/09/26 03:15:08;;;;;;;17.60;13.85;;;;;;;15.31;100.00;101238.03;5261694;28;20036;-69
2021/09/26 03:17:39;;;;;;;19.63;14.07;;;;;;;15.30;100.00;101245.13;5260832;28;20033;-69
2021/09/26 03:20:11;;;;;;;19.25;13.73;;;;;;;15.34;100.00;101248.28;5261719;28;20078;-69
2021/09/26 03:22:43;;;;;;;18.75;13.88;;;;;;;15.31;100.00;101243.31;5261140;28;20033;-68
2021/09/26 03:25:14;;;;;;;17.35;13.52;;;;;;;15.32;100.00;101243.16;5261165;28;20040;-68
2021/09/26 03:27:46;;;;;;;18.60;12.93;;;;;;;15.32;100.00;101237.06;5259547;28;20041;-68
2021/09/26 03:30:18;;;;;;;20.10;13.55;;;;;;;15.34;100.00;101240.34;5261601;28;20479;-68
2021/09/26 03:32:49;;;;;;;18.40;14.00;;;;;;;15.34;100.00;101240.34;5261438;28;20017;-68
2021/09/26 03:35:21;;;;;;;18.95;14.02;;;;;;;15.36;100.00;101240.22;5261083;28;20021;-68
2021/09/26 03:37:52;;;;;;;21.02;13.60;;;;;;;15.40;100.00;101241.56;5258213;28;20143;-68
2021/09/26 03:40:23;;;;;;;19.80;14.98;;;;;;;15.38;100.00;101241.75;5261172;28;20052;-68
2021/09/26 03:42:55;;;;;;;28.80;16.33;;;;;;;15.40;100.00;101233.66;5261049;28;20482;-68
2021/09/26 03:45:26;;;;;;;23.63;14.73;;;;;;;15.36;100.00;101227.84;5261271;28;20036;-68
2021/09/26 03:47:57;;;;;;;20.65;15.40;;;;;;;15.37;100.00;101228.69;5255771;28;20025;-68
2021/09/26 03:50:29;;;;;;;20.58;14.45;;;;;;;15.35;100.00;101222.72;5261273;28;20037;-68
2021/09/26 03:53:00;;;;;;;20.67;14.75;;;;;;;15.34;100.00;101224.50;5260512;28;20100;-68
2021/09/26 03:55:31;;;;;;;17.65;14.00;;;;;;;15.36;100.00;101224.38;5256462;28;20474;-68
2021/09/26 03:58:03;;;;;;;18.85;14.30;;;;;;;15.38;100.00;101222.41;5260626;28;20025;-68
2021/09/26 04:00:35;;;;;;;20.40;14.43;;;;;;;15.37;100.00;101228.69;5257744;28;20119;-68
2021/09/26 04:03:06;;;;;;;17.13;14.27;;;;;;;15.40;100.00;101220.47;5260830;28;20462;-68
2021/09/26 04:05:37;;;;;;;20.55;15.20;;;;;;;15.41;100.00;101225.56;5254164;28;20024;-68
2021/09/26 04:08:08;;;;;;;17.30;14.10;;;;;;;15.42;100.00;101223.75;5260343;28;20017;-68
2021/09/26 04:10:40;;;;;;;18.15;14.23;;;;;;;15.43;100.00;101220.97;5260494;28;20021;-67
2021/09/26 04:13:11;;;;;;;16.42;14.43;;;;;;;15.41;100.00;101222.09;5256614;28;20021;-68
2021/09/26 04:15:42;;;;;;;19.70;15.23;;;;;;;15.42;100.00;101224.63;5260226;28;20386;-68
2021/09/26 04:18:14;;;;;;;21.63;16.13;;;;;;;15.42;100.00;101221.13;5256287;28;20077;-67
2021/09/26 04:20:45;;;;;;;19.42;14.85;;;;;;;15.41;100.00;101215.00;5260761;28;20040;-68
2021/09/26 04:23:16;;;;;;;19.15;14.07;;;;;;;15.43;100.00;101214.88;5260403;28;20025;-68
2021/09/26 04:25:48;;;;;;;17.17;14.43;;;;;;;15.46;100.00;101217.22;5258813;28;20032;-68
2021/09/26 04:28:19;;;;;;;19.63;14.45;;;;;;;15.44;100.00;101220.00;5260563;28;20040;-68
2021/09/26 04:30:50;;;;;;;16.02;14.27;;;;;;;15.43;100.00;101209.59;5259941;28;20021;-67
2021/09/26 04:33:22;;;;;;;16.98;14.15;;;;;;;15.45;100.00;101208.44;5260280;28;20025;-67
2021/09/26 04:35:53;;;;;;;15.98;14.18;;;;;;;15.46;100.00;101215.41;5254146;28;20024;-68
2021/09/26 04:38:25;;;;;;;17.85;14.45;;;;;;;15.46;100.00;101228.59;5259632;28;20028;-68
2021/09/26 04:40:57;;;;;;;17.33;14.60;;;;;;;15.46;100.00;101225.13;5260308;28;20035;-68
2021/09/26 04:43:28;;;;;;;16.47;14.63;;;;;;;15.50;100.00;101216.75;5257528;28;20078;-68
2021/09/26 04:46:00;;;;;;;18.05;14.25;;;;;;;15.47;100.00;101222.34;5259408;28;20021;-68
2021/09/26 04:48:31;;;;;;;18.35;14.05;;;;;;;15.50;100.00;101221.22;5259846;28;20025;-67
2021/09/26 04:51:05;;;;;;;17.73;14.00;;;;;;;15.53;100.00;101228.81;5260125;28;20036;-68
2021/09/26 04:53:36;;;;;;;15.68;13.75;;;;;;;15.51;100.00;101222.84;5256074;28;20123;-68
2021/09/26 04:56:07;;;;;;;17.60;14.02;;;;;;;15.53;100.00;101212.97;5259940;28;20120;-68
2021/09/26 04:58:39;;;;;;;16.20;14.45;;;;;;;15.54;100.00;101219.91;5260020;28;20509;-68
2021/09/26 05:01:11;;;;;;;15.88;14.02;;;;;;;15.51;100.00;101213.13;5257655;28;20028;-68
2021/09/26 05:03:42;;;;;;;17.33;13.57;;;;;;;15.56;100.00;101220.56;5258151;28;20090;-68
2021/09/26 05:06:14;;;;;;;15.55;13.95;;;;;;;15.58;100.00;101224.72;5255995;28;20554;-68
2021/09/26 05:08:46;;;;;;;16.45;13.38;;;;;;;15.58;100.00;101226.56;5259897;28;20482;-68
2021/09/26 05:11:17;;;;;;;16.05;13.30;;;;;;;15.60;100.00;101226.38;5257730;28;20478;-68
2021/09/26 05:13:48;;;;;;;17.08;13.95;;;;;;;15.60;100.00;101229.84;5257127;28;20398;-68
2021/09/26 05:16:19;;;;;;;15.30;13.48;;;;;;;15.61;100.00;101234.16;5259553;28;20025;-68
2021/09/26 05:18:51;;;;;;;16.38;13.80;;;;;;;15.63;100.00;101240.13;5258959;28;20048;-68
2021/09/26 05:21:22;;;;;;;17.98;14.45;;;;;;;15.63;100.00;101237.47;5255956;28;20036;-68
2021/09/26 05:23:53;;;;;;;20.25;14.52;;;;;;;15.62;100.00;101232.34;5259439;28;20033;-68
2021/09/26 05:26:25;;;;;;;16.10;13.60;;;;;;;15.64;100.00;101233.84;5259751;28;20532;-68
2021/09/26 05:28:56;;;;;;;19.05;14.13;;;;;;;15.62;100.00;101230.53;5251507;28;20020;-68
2021/09/26 05:31:28;;;;;;;16.65;14.60;;;;;;;15.64;100.00;101233.84;5259439;28;20021;-68
2021/09/26 05:34:00;;;;;;;19.05;14.43;;;;;;;15.63;100.00;101226.09;5258000;28;20017;-67
2021/09/26 05:36:31;;;;;;;15.82;13.88;;;;;;;15.63;100.00;101231.38;5255456;28;20085;-68
2021/09/26 05:39:04;;;;;;;16.98;14.38;;;;;;;15.65;100.00;101230.28;5257633;28;20070;-68
2021/09/26 05:41:35;;;;;;;17.65;14.00;;;;;;;15.66;100.00;101231.09;5258995;28;20118;-68
2021/09/26 05:44:06;;;;;;;16.02;13.98;;;;;;;15.62;100.00;101235.81;5251389;28;20049;-68
2021/09/26 05:46:37;;;;;;;17.35;14.35;;;;;;;15.63;100.00;101239.28;5259656;28;20029;-68
2021/09/26 05:49:09;;;;;;;18.35;13.48;;;;;;;15.56;100.00;101239.06;5259225;28;20025;-68
2021/09/26 05:51:41;;;;;;;15.68;14.05;;;;;;;15.55;100.00;101240.06;5254441;28;20033;-68
2021/09/26 05:54:12;;;;;;;14.95;13.32;;;;;;;15.53;100.00;101234.09;5259130;28;20048;-68
2021/09/26 05:56:44;;;;;;;16.75;13.60;;;;;;;15.49;100.00;101230.94;5259789;28;20036;-67
2021/09/26 05:59:15;;;;;;;18.58;13.73;;;;;;;15.46;100.00;101225.97;5253104;28;20022;-68
2021/09/26 06:01:46;;;;;;;16.23;14.48;;;;;;;15.46;100.00;101233.06;5256585;28;20175;-68
2021/09/26 06:04:18;;;;;;;15.82;13.90;;;;;;;15.43;100.00;101238.63;5258921;28;20111;-68
2021/09/26 06:06:49;;;;;;;15.35;13.75;;;;;;;15.44;100.00;101232.38;5259179;28;20028;-68
2021/09/26 06:09:20;;;;;;;16.73;13.57;;;;;;;15.43;100.00;101242.09;5254200;28;20033;-68
2021/09/26 06:11:51;;;;;;;17.90;13.80;;;;;;;15.44;100.00;101246.41;5258211;28;20109;-68
2021/09/26 06:14:23;;;;;;;18.92;13.93;;;;;;;15.46;100.00;101240.97;5258696;28;20393;-68
2021/09/26 06:16:54;;;;;;;19.10;13.68;;;;;;;15.52;100.00;101243.81;5257364;28;20025;-68
2021/09/26 06:19:25;;;;;;;17.55;14.82;;;;;;;15.56;100.00;101242.53;5252898;28;20036;-67
2021/09/26 06:21:56;;;;;;;15.32;13.68;;;;;;;15.58;100.00;101242.41;5255540;28;20028;-68
2021/09/26 06:24:28;;;;;;;19.35;14.18;;;;;;;15.61;100.00;101239.47;5265054;28;20025;-68
2021/09/26 06:26:59;;;;;;;19.88;14.02;;;;;;;15.67;100.00;101246.78;5258122;28;20482;-68
2021/09/26 06:29:30;;;;;;;20.45;14.02;;;;;;;15.66;100.00;101242.50;5257500;28;20036;-68
2021/09/26 06:32:02;;;;;;;20.80;15.23;;;;;;;15.71;100.00;101245.50;5254529;28;20074;-68
2021/09/26 06:34:33;;;;;;;18.30;14.80;;;;;;;15.73;100.00;101246.19;5253812;28;20390;-68
2021/09/26 06:37:05;;;;;;;21.17;15.02;;;;;;;15.70;100.00;101245.66;5258515;28;20079;-68
2021/09/26 06:39:37;;;;;;;21.25;14.70;;;;;;;15.73;100.00;101259.38;5254843;28;20079;-68
2021/09/26 06:42:08;;;;;;;19.63;15.27;;;;;;;15.76;100.00;101255.63;5255952;28;20060;-68
2021/09/26 06:44:39;;;;;;;21.98;15.02;;;;;;;15.79;100.00;101258.75;5260256;28;20025;-68
2021/09/26 06:47:11;;;;;;;18.10;14.75;;;;;;;15.81;100.00;101262.09;5256954;28;20459;-68
2021/09/26 06:49:43;;;;;;;19.38;14.60;;;;;;;15.82;100.00;101266.38;5257478;28;20429;-68
2021/09/26 06:52:14;;;;;;;18.80;13.98;;;;;;;15.85;100.00;101264.41;5260971;28;20421;-68
2021/09/26 06:54:46;;;;;;;16.25;13.98;;;;;;;15.87;100.00;101259.78;5260554;28;20025;-68
2021/09/26 06:57:17;;;;;;;19.85;15.20;;;;;;;15.90;100.00;101264.78;5261321;28;20025;-68
2021/09/26 06:59:48;;;;;;;17.40;15.15;;;;;;;15.92;100.00;101268.09;5258855;28;20477;-69
2021/09/26 07:02:23;;;;;;;19.45;15.90;;;;;;;15.96;100.00;101272.91;5258671;28;20057;-68
2021/09/26 07:04:54;;;;;;;16.83;14.77;;;;;;;16.00;100.00;101279.56;5261427;28;20037;-68
2021/09/26 07:07:25;;;;;;;18.60;14.75;;;;;;;16.01;100.00;101283.03;5260412;28;20028;-68
2021/09/26 07:09:57;;;;;;;18.95;15.38;;;;;;;16.08;100.00;101276.13;5259306;28;20034;-68
2021/09/26 07:12:28;;;;;;;20.02;15.15;;;;;;;16.11;100.00;101280.28;5263986;28;20082;-68
2021/09/26 07:15:01;;;;;;;17.20;15.40;;;;;;;16.14;100.00;101275.53;5262887;28;20013;-68
2021/09/26 07:17:32;;;;;;;19.00;16.73;;;;;;;16.18;100.00;101268.13;5253379;28;20401;-68
2021/09/26 07:20:05;;;;;;;18.92;17.02;;;;;;;16.24;100.00;101270.13;5258313;28;20039;-68
2021/09/26 07:22:38;;;;;;;18.45;16.38;;;;;;;16.27;100.00;101278.56;5256716;28;20029;-68
2021/09/26 07:25:09;;;;;;;20.42;16.77;;;;;;;16.30;100.00;101278.25;5259334;28;20029;-67
2021/09/26 07:27:41;;;;;;;20.38;17.17;;;;;;;16.38;100.00;101292.50;5264351;28;20028;-68
2021/09/26 07:30:12;;;;;;;19.20;17.30;;;;;;;16.43;100.00;101300.78;5261888;28;20028;-68
2021/09/26 07:32:45;;;;;;;20.25;17.92;;;;;;;16.48;100.00;101303.81;5257574;28;20108;-68
2021/09/26 07:35:16;;;;;;;19.02;17.08;;;;;;;16.52;100.00;101300.69;5257967;28;20031;-68
2021/09/26 07:37:47;;;;;;;21.17;18.13;;;;;;;16.59;100.00;101305.34;5257848;28;20028;-68
2021/09/26 07:40:19;;;;;;;19.50;17.50;;;;;;;16.66;100.00;101309.84;5259642;28;20132;-68
2021/09/26 07:42:50;;;;;;;20.00;17.92;;;;;;;16.74;100.00;101309.06;5255543;28;20024;-69
2021/09/26 07:45:21;;;;;;;19.75;17.85;;;;;;;16.78;100.00;101298.03;5253028;28;20031;-69
2021/09/26 07:47:53;;;;;;;20.38;18.27;;;;;;;16.88;100.00;101305.00;5252313;28;20339;-69
2021/09/26 07:50:26;;;;;;;21.65;18.13;;;;;;;16.96;100.00;101312.97;5266613;28;20398;-69
2021/09/26 07:52:58;;;;;;;19.65;17.58;;;;;;;17.02;100.00;101307.88;5256015;28;20062;-69
2021/09/26 07:55:29;;;;;;;24.23;18.33;;;;;;;17.12;100.00;101309.53;5251957;28;20036;-69
2021/09/26 07:58:01;;;;;;;20.10;17.88;;;;;;;17.23;100.00;101301.28;5258041;28;20290;-69
2021/09/26 08:00:32;;;;;;;22.33;19.83;;;;;;;17.30;100.00;101298.81;5259434;28;20316;-69
2021/09/26 08:03:03;;;;;;;21.90;19.57;;;;;;;17.40;100.00;101302.16;5261296;28;20021;-68
2021/09/26 08:05:36;;;;;;;22.58;18.75;;;;;;;17.51;100.00;101310.63;5260367;28;20072;-68
2021/09/26 08:08:07;;;;;;;25.15;20.60;;;;;;;17.55;100.00;101308.47;5260710;28;20146;-68
2021/09/26 08:10:39;;;;;;;22.05;19.65;;;;;;;17.70;100.00;101320.06;5258343;28;20119;-68
2021/09/26 08:13:10;;;;;;;21.53;19.17;;;;;;;17.77;100.00;101309.69;5260030;28;20017;-68
2021/09/26 08:15:42;;;;;;;26.50;20.27;;;;;;;17.80;100.00;101319.91;5262560;28;20021;-68
2021/09/26 08:18:13;;;;;;;21.60;19.30;;;;;;;17.89;100.00;101316.28;5259851;28;20029;-68
2021/09/26 08:20:45;;;;;;;20.97;18.73;;;;;;;18.03;100.00;101311.28;5258243;28;20051;-68
2021/09/26 08:23:16;;;;;;;24.92;20.33;;;;;;;18.09;100.00;101318.59;5255630;28;20025;-68
2021/09/26 08:25:47;;;;;;;22.20;19.90;;;;;;;18.15;100.00;101329.34;5255886;28;20510;-68
2021/09/26 08:28:19;;;;;;;20.67;18.67;;;;;;;18.17;100.00;101337.97;5263683;28;20025;-69
2021/09/26 08:30:50;;;;;;;20.42;18.42;;;;;;;18.26;100.00;101330.84;5256217;28;20036;-68
2021/09/26 08:33:22;;;;;;;20.80;18.63;;;;;;;18.28;100.00;101333.31;5254447;28;20379;-68
2021/09/26 08:35:53;;;;;;;21.58;19.05;;;;;;;18.31;100.00;101338.28;5258213;28;20028;-67
2021/09/26 08:38:24;;;;;;;21.33;18.17;;;;;;;18.32;100.00;101332.81;5259598;28;20017;-68
2021/09/26 08:40:57;;;;;;;22.37;20.10;;;;;;;18.32;100.00;101337.28;5256997;28;20024;-68
2021/09/26 08:43:29;;;;;;;20.77;18.65;;;;;;;18.44;100.00;101346.53;5258269;28;20036;-68
2021/09/26 08:46:03;;;;;;;20.65;18.58;;;;;;;18.51;100.00;101338.72;5242792;28;20534;-68
2021/09/26 08:48:35;;;;;;;21.17;19.08;;;;;;;18.48;100.00;101346.03;5255455;28;20116;-68
2021/09/26 08:51:07;;;;;;;21.52;19.35;;;;;;;18.46;100.00;101345.38;5259041;28;20035;-68
2021/09/26 08:53:39;;;;;;;22.63;20.27;;;;;;;18.41;100.00;101349.53;5257739;28;20033;-68
2021/09/26 08:56:10;;;;;;;22.52;19.83;;;;;;;18.48;100.00;101343.38;5258436;28;20029;-68
2021/09/26 08:58:41;;;;;;;21.52;19.42;;;;;;;18.53;100.00;101339.41;5259730;28;20068;-68
2021/09/26 09:01:13;;;;;;;22.57;20.13;;;;;;;18.57;100.00;101354.81;5257854;28;20021;-68
2021/09/26 09:03:47;;;;;;;24.37;20.93;;;;;;;18.75;100.00;101351.13;5259012;28;20048;-68
2021/09/26 09:06:35;;;;;;;23.88;21.58;;;;;;;18.85;100.00;101349.09;5257558;28;20340;-68
2021/09/26 09:09:15;;;;;;;21.75;19.65;;;;;;;19.03;100.00;101347.03;5258456;28;20071;-68
2021/09/26 09:12:05;;;;;;;23.70;21.35;;;;;;;19.28;100.00;101368.16;5256188;28;20409;-68
2021/09/26 09:15:13;;;;;;;23.73;21.52;;;;;;;19.50;100.00;101362.03;5255078;28;20506;-68
2021/09/26 09:17:44;;;;;;;24.25;21.85;;;;;;;19.55;100.00;101358.88;5256996;28;20096;-68
2021/09/26 09:20:17;;;;;;;24.20;20.73;;;;;;;19.50;100.00;101372.66;5259534;28;20760;-69
2021/09/26 09:22:51;;;;;;;22.90;20.63;;;;;;;19.49;100.00;101375.50;5261968;28;20037;-68
2021/09/26 09:25:33;;;;;;;22.77;20.60;;;;;;;19.42;100.00;101373.53;5274306;28;20016;-67
2021/09/26 09:28:07;;;;;;;23.45;20.98;;;;;;;19.34;100.00;101372.78;5257247;28;20028;-68
2021/09/26 09:30:55;;;;;;;22.08;19.75;;;;;;;19.30;100.00;101376.78;5259690;28;20035;-68
2021/09/26 09:33:39;;;;;;;23.98;21.23;;;;;;;19.39;100.00;101375.72;5270218;28;20400;-67
2021/09/26 09:36:18;;;;;;;21.65;19.65;;;;;;;19.47;100.00;101374.84;5251742;28;20052;-67
2021/09/26 09:38:59;;;;;;;23.10;20.75;;;;;;;19.61;100.00;101376.75;5258450;28;20049;-67
2021/09/26 09:41:50;;;;;;;20.70;18.80;;;;;;;19.86;100.00;101369.47;5251487;28;20030;-68
2021/09/26 09:44:35;;;;;;;22.92;20.58;;;;;;;20.04;100.00;101361.16;5253491;28;20098;-67
2021/09/26 09:47:06;;;;;;;22.23;19.98;;;;;;;19.98;100.00;101365.38;5259630;28;20086;-67
2021/09/26 09:49:52;;;;;;;20.07;18.07;;;;;;;20.24;100.00;101361.50;5258154;28;20364;-67
2021/09/26 09:52:44;;;;;;;20.92;18.88;;;;;;;20.40;100.00;101364.81;5254141;28;20092;-67
2021/09/26 09:55:18;;;;;;;19.70;17.73;;;;;;;20.54;100.00;101360.56;5238765;28;20026;-68
2021/09/26 09:57:49;;;;;;;19.48;17.10;;;;;;;20.62;100.00;101367.63;5238383;28;20029;-68
2021/09/26 10:00:22;;;;;;;20.03;18.10;;;;;;;20.68;100.00;101360.72;5245069;28;20036;-67
2021/09/26 10:02:53;;;;;;;;;;;;;;;21.03;100.00;101362.66;5253197;28;20021;-68
2021/09/26 10:05:32;;;;;;;17.53;15.83;;;;;;;21.04;100.00;101366.13;5259070;28;19912;-68
2021/09/26 10:08:04;;;;;;;18.15;16.48;;;;;;;21.10;100.00;101376.03;5258421;28;20294;-68
2021/09/26 10:10:35;;;;;;;18.63;16.43;;;;;;;21.17;100.00;101376.09;5245334;28;20021;-68
2021/09/26 10:13:11;;;;;;;17.57;15.77;;;;;;;21.23;100.00;101370.88;5251852;28;20014;-68
2021/09/26 10:15:43;;;;;;;17.55;15.85;;;;;;;21.35;100.00;101380.06;5259161;28;20090;-68
2021/09/26 10:18:14;;;;;;;16.20;14.70;;;;;;;21.53;100.00;101382.31;5259013;28;20025;-69
2021/09/26 10:20:46;;;;;;;17.03;15.23;;;;;;;21.45;100.00;101382.44;5256983;28;20013;-68
2021/09/26 10:23:19;;;;;;;17.47;15.87;;;;;;;21.55;100.00;101374.09;5260548;28;20029;-69
2021/09/26 10:25:52;;;;;;;16.67;15.07;;;;;;;21.55;100.00;101377.59;5262725;28;20021;-68
2021/09/26 10:28:27;;;;;;;;;;;;;;;21.88;100.00;101390.44;5263336;28;20461;-68
2021/09/26 10:31:03;;;;;;;16.33;14.73;;;;;;;21.69;100.00;101396.41;5259442;28;19912;-68
2021/09/26 10:33:34;;;;;;;20.80;17.00;;;;;;;21.51;100.00;101392.31;5262458;28;20040;-68
2021/09/26 10:36:09;;;;;;;18.47;16.67;;;;;;;21.46;100.00;101402.72;5264263;28;20025;-68
2021/09/26 10:38:40;;;;;;;18.08;16.35;;;;;;;21.48;100.00;101398.06;5269642;28;20120;-69
2021/09/26 10:41:12;;;;;;;17.60;16.07;;;;;;;21.58;100.00;101397.72;5262481;28;20127;-69
2021/09/26 10:43:43;;;;;;;17.87;16.23;;;;;;;21.70;100.00;101396.22;5262632;28;20031;-68
2021/09/26 10:46:15;;;;;;;17.17;15.57;;;;;;;21.75;100.00;101388.47;5262650;28;20013;-69
2021/09/26 10:49:05;;;;;;;17.80;16.17;;;;;;;22.05;100.00;101401.69;5253795;28;20025;-68
2021/09/26 10:51:44;;;;;;;17.27;15.68;;;;;;;22.02;100.00;101392.22;5262401;28;20033;-69
2021/09/26 10:54:22;;;;;;;16.88;15.30;;;;;;;22.14;100.00;101403.22;5262613;28;20470;-68
2021/09/26 10:57:13;;;;;;;17.27;15.60;;;;;;;22.18;100.00;101401.81;5260979;28;20036;-68
2021/09/26 10:59:48;;;;;;;16.30;14.60;;;;;;;22.14;100.00;101395.22;5261371;28;20394;-69
2021/09/26 11:02:33;;;;;;;18.73;16.08;;;;;;;22.24;100.00;101395.72;5261689;28;20113;-68
2021/09/26 11:05:07;;;;;;;17.05;15.55;;;;;;;22.19;100.00;101392.78;5260483;28;20032;-69
2021/09/26 11:07:44;;;;;;;17.50;15.80;;;;;;;22.27;100.00;101389.16;5261416;28;20126;-69
2021/09/26 11:10:16;;;;;;;17.30;15.50;;;;;;;22.34;100.00;101390.84;5258593;28;20474;-68
2021/09/26 11:12:49;;;;;;;17.67;16.05;;;;;;;22.42;100.00;101397.06;5261359;28;20029;-69
2021/09/26 11:15:23;;;;;;;16.35;14.75;;;;;;;22.57;100.00;101406.59;5258759;28;20028;-69
2021/09/26 11:17:55;;;;;;;15.98;14.43;;;;;;;22.59;100.00;101409.91;5258175;28;20132;-69
2021/09/26 11:20:29;;;;;;;16.55;14.85;;;;;;;22.70;100.00;101403.22;5259125;28;20033;-69
2021/09/26 11:23:04;;;;;;;16.10;14.55;;;;;;;22.71;100.00;101402.19;5271479;28;20029;-69
2021/09/26 11:25:57;;;;;;;17.58;15.77;;;;;;;22.87;100.00;101406.38;5282508;28;20055;-69
2021/09/26 11:28:40;;;;;;;15.65;14.13;;;;;;;22.93;100.00;101400.28;5278617;28;20489;-68
2021/09/26 11:31:41;;;;;;;15.77;14.27;;;;;;;23.12;100.00;101398.72;5250938;28;20025;-69